sensor_id;sensor_type;location;lat;lon;timestamp;pressure;altitude;pressure_sealevel;temperature;humidity
26087;BME280;13851;43.434;28.338;2023-01-01T00:01:15;101207.28;;;10.67;100.00
26087;BME280;13851;43.434;28.338;2023-01-01T00:03:41;101327.25;;;11.30;100.00
26087;BME280;13851;43.434;28.338;2023-01-01T00:06:11;101340.47;;;11.17;100.00
26087;BME280;13851;43.434;28.338;2023-01-01T00:08:38;101276.91;;;10.84;100.00
26087;BME280;13851;43.434;28.338;2023-01-01T00:11:05;101334.41;;;11.13;100.00
26087;BME280;13851;43.434;28.338;2023-01-01T00:13:32;101332.94;;;11.19;100.00
26087;BME280;13851;43.434;28.338;2023-01-01T00:16:07;101363.25;;;11.27;100.00
26087;BME280;13851;43.434;28.338;2023-01-01T00:18:34;101236.56;;;10.67;100.00
26087;BME280;13851;43.434;28.338;2023-01-01T00:21:06;101337.38;;;11.30;100.00
26087;BME280;13851;43.434;28.338;2023-01-01T00:23:33;101331.88;;;11.30;100.00
26087;BME280;13851;43.434;28.338;2023-01-01T00:25:59;101353.13;;;11.28;100.00
26087;BME280;13851;43.434;28.338;2023-01-01T00:28:25;101295.94;;;10.96;100.00
26087;BME280;13851;43.434;28.338;2023-01-01T00:30:50;101314.72;;;10.90;100.00
26087;BME280;13851;43.434;28.338;2023-01-01T00:33:19;101331.19;;;10.81;100.00
26087;BME280;13851;43.434;28.338;2023-01-01T00:35:45;101297.94;;;10.27;100.00
26087;BME280;13851;43.434;28.338;2023-01-01T00:38:10;101242.72;;;9.93;100.00
26087;BME280;13851;43.434;28.338;2023-01-01T00:40:35;101320.84;;;10.55;100.00
26087;BME280;13851;43.434;28.338;2023-01-01T00:43:01;101297.78;;;10.19;100.00
26087;BME280;13851;43.434;28.338;2023-01-01T00:45:27;101332.69;;;10.46;100.00
26087;BME280;13851;43.434;28.338;2023-01-01T00:47:53;101345.34;;;10.37;100.00
26087;BME280;13851;43.434;28.338;2023-01-01T00:50:21;101268.94;;;10.15;100.00
26087;BME280;13851;43.434;28.338;2023-01-01T00:52:48;101325.91;;;10.60;100.00
26087;BME280;13851;43.434;28.338;2023-01-01T00:55:14;101331.03;;;10.73;100.00
26087;BME280;13851;43.434;28.338;2023-01-01T00:57:40;101327.03;;;10.48;100.00
26087;BME280;13851;43.434;28.338;2023-01-01T01:00:07;101333.84;;;10.24;100.00
26087;BME280;13851;43.434;28.338;2023-01-01T01:02:32;101328.22;;;10.26;100.00
26087;BME280;13851;43.434;28.338;2023-01-01T01:04:58;101301.38;;;10.10;100.00
26087;BME280;13851;43.434;28.338;2023-01-01T01:07:23;101341.91;;;10.35;100.00
26087;BME280;13851;43.434;28.338;2023-01-01T01:09:49;101305.28;;;10.46;100.00
26087;BME280;13851;43.434;28.338;2023-01-01T01:12:14;101322.13;;;10.71;100.00
26087;BME280;13851;43.434;28.338;2023-01-01T01:14:40;101313.91;;;10.71;100.00
26087;BME280;13851;43.434;28.338;2023-01-01T01:17:05;101268.13;;;10.24;100.00
26087;BME280;13851;43.434;28.338;2023-01-01T01:19:31;101323.00;;;10.52;100.00
26087;BME280;13851;43.434;28.338;2023-01-01T01:21:56;101343.63;;;10.46;100.00
26087;BME280;13851;43.434;28.338;2023-01-01T01:24:22;101311.19;;;10.41;100.00
26087;BME280;13851;43.434;28.338;2023-01-01T01:26:48;101287.81;;;9.99;100.00
26087;BME280;13851;43.434;28.338;2023-01-01T01:29:13;101332.19;;;10.02;100.00
26087;BME280;13851;43.434;28.338;2023-01-01T01:31:41;101306.22;;;9.77;100.00
26087;BME280;13851;43.434;28.338;2023-01-01T01:34:10;101261.41;;;9.59;100.00
26087;BME280;13851;43.434;28.338;2023-01-01T01:36:36;101123.97;;;8.88;100.00
26087;BME280;13851;43.434;28.338;2023-01-01T01:39:01;101279.16;;;9.74;100.00
26087;BME280;13851;43.434;28.338;2023-01-01T01:41:27;101303.81;;;10.03;100.00
26087;BME280;13851;43.434;28.338;2023-01-01T01:44:42;101331.69;;;9.58;100.00
26087;BME280;13851;43.434;28.338;2023-01-01T01:46:41;101298.94;;;9.37;100.00
26087;BME280;13851;43.434;28.338;2023-01-01T01:49:35;101293.97;;;9.72;100.00
26087;BME280;13851;43.434;28.338;2023-01-01T01:52:00;101130.16;;;8.49;100.00
26087;BME280;13851;43.434;28.338;2023-01-01T01:54:26;101256.50;;;9.03;100.00
26087;BME280;13851;43.434;28.338;2023-01-01T01:56:59;101277.22;;;9.05;100.00
26087;BME280;13851;43.434;28.338;2023-01-01T01:59:29;101274.81;;;9.12;100.00
26087;BME280;13851;43.434;28.338;2023-01-01T02:01:59;101269.50;;;9.20;100.00
26087;BME280;13851;43.434;28.338;2023-01-01T02:04:25;101283.78;;;9.24;100.00
26087;BME280;13851;43.434;28.338;2023-01-01T02:06:51;101303.94;;;9.23;100.00
26087;BME280;13851;43.434;28.338;2023-01-01T02:09:18;101314.16;;;9.30;100.00
26087;BME280;13851;43.434;28.338;2023-01-01T02:11:45;101308.09;;;9.17;100.00
26087;BME280;13851;43.434;28.338;2023-01-01T02:14:10;101292.75;;;9.05;100.00
26087;BME280;13851;43.434;28.338;2023-01-01T02:19:14;101312.88;;;9.34;100.00
26087;BME280;13851;43.434;28.338;2023-01-01T02:21:50;101304.00;;;9.42;100.00
26087;BME280;13851;43.434;28.338;2023-01-01T02:27:04;101293.03;;;9.32;100.00
26087;BME280;13851;43.434;28.338;2023-01-01T02:29:38;101301.06;;;9.24;100.00
26087;BME280;13851;43.434;28.338;2023-01-01T02:33:14;101301.28;;;9.42;100.00
26087;BME280;13851;43.434;28.338;2023-01-01T02:35:19;101294.50;;;9.46;100.00
26087;BME280;13851;43.434;28.338;2023-01-01T02:38:28;101297.25;;;9.16;100.00
26087;BME280;13851;43.434;28.338;2023-01-01T02:40:58;101295.03;;;9.30;100.00
26087;BME280;13851;43.434;28.338;2023-01-01T02:43:25;101287.88;;;9.39;100.00
26087;BME280;13851;43.434;28.338;2023-01-01T02:45:52;101289.34;;;9.53;100.00
26087;BME280;13851;43.434;28.338;2023-01-01T02:54:11;101245.97;;;9.38;100.00
26087;BME280;13851;43.434;28.338;2023-01-01T03:05:16;101293.16;;;9.90;100.00
26087;BME280;13851;43.434;28.338;2023-01-01T03:08:15;101289.81;;;9.77;100.00
26087;BME280;13851;43.434;28.338;2023-01-01T03:13:27;101330.19;;;9.45;100.00
26087;BME280;13851;43.434;28.338;2023-01-01T03:18:43;101314.34;;;9.38;100.00
26087;BME280;13851;43.434;28.338;2023-01-01T03:21:12;101245.19;;;9.17;100.00
26087;BME280;13851;43.434;28.338;2023-01-01T03:23:46;101206.19;;;9.15;100.00
26087;BME280;13851;43.434;28.338;2023-01-01T03:26:17;101262.09;;;9.51;100.00
26087;BME280;13851;43.434;28.338;2023-01-01T03:28:54;101240.53;;;9.48;100.00
26087;BME280;13851;43.434;28.338;2023-01-01T03:31:23;101243.13;;;9.59;100.00
26087;BME280;13851;43.434;28.338;2023-01-01T03:34:15;101138.09;;;8.93;100.00
26087;BME280;13851;43.434;28.338;2023-01-01T03:36:49;101286.66;;;10.01;100.00
26087;BME280;13851;43.434;28.338;2023-01-01T03:39:47;101290.69;;;10.07;100.00
26087;BME280;13851;43.434;28.338;2023-01-01T03:42:36;101041.81;;;8.60;100.00
26087;BME280;13851;43.434;28.338;2023-01-01T03:45:12;101278.59;;;10.00;100.00
26087;BME280;13851;43.434;28.338;2023-01-01T03:47:41;101261.31;;;9.89;100.00
26087;BME280;13851;43.434;28.338;2023-01-01T03:50:10;101231.78;;;9.83;100.00
26087;BME280;13851;43.434;28.338;2023-01-01T03:55:48;101323.16;;;10.40;100.00
26087;BME280;13851;43.434;28.338;2023-01-01T03:58:32;101289.13;;;10.14;100.00
26087;BME280;13851;43.434;28.338;2023-01-01T04:01:10;101297.75;;;10.00;100.00
26087;BME280;13851;43.434;28.338;2023-01-01T04:03:40;101293.41;;;9.87;100.00
26087;BME280;13851;43.434;28.338;2023-01-01T04:06:08;101260.28;;;9.90;100.00
26087;BME280;13851;43.434;28.338;2023-01-01T04:08:35;101270.38;;;10.00;100.00
26087;BME280;13851;43.434;28.338;2023-01-01T04:11:07;101300.22;;;10.22;100.00
26087;BME280;13851;43.434;28.338;2023-01-01T04:13:54;101338.16;;;10.36;100.00
26087;BME280;13851;43.434;28.338;2023-01-01T04:16:22;101276.13;;;10.16;100.00
26087;BME280;13851;43.434;28.338;2023-01-01T04:18:48;101270.38;;;10.19;100.00
26087;BME280;13851;43.434;28.338;2023-01-01T04:21:13;101150.25;;;9.48;100.00
26087;BME280;13851;43.434;28.338;2023-01-01T04:23:42;101293.75;;;10.33;100.00
26087;BME280;13851;43.434;28.338;2023-01-01T04:26:12;101166.94;;;9.35;100.00
26087;BME280;13851;43.434;28.338;2023-01-01T04:28:41;101069.59;;;8.84;100.00
26087;BME280;13851;43.434;28.338;2023-01-01T04:31:07;101327.47;;;10.04;100.00
26087;BME280;13851;43.434;28.338;2023-01-01T04:33:33;101297.16;;;9.77;100.00
26087;BME280;13851;43.434;28.338;2023-01-01T04:36:06;101293.69;;;9.65;100.00
26087;BME280;13851;43.434;28.338;2023-01-01T04:38:38;101297.47;;;9.83;100.00
26087;BME280;13851;43.434;28.338;2023-01-01T04:41:04;101334.63;;;9.86;100.00
26087;BME280;13851;43.434;28.338;2023-01-01T04:43:30;101248.16;;;9.54;100.00
26087;BME280;13851;43.434;28.338;2023-01-01T04:46:01;101265.19;;;9.68;100.00
26087;BME280;13851;43.434;28.338;2023-01-01T04:48:28;101304.47;;;9.67;100.00
26087;BME280;13851;43.434;28.338;2023-01-01T04:50:59;101317.06;;;9.79;100.00
26087;BME280;13851;43.434;28.338;2023-01-01T04:53:28;101265.59;;;9.63;100.00
26087;BME280;13851;43.434;28.338;2023-01-01T04:55:54;101320.25;;;9.94;100.00
26087;BME280;13851;43.434;28.338;2023-01-01T04:58:19;101293.16;;;9.90;100.00
26087;BME280;13851;43.434;28.338;2023-01-01T05:00:49;101276.28;;;9.85;100.00
26087;BME280;13851;43.434;28.338;2023-01-01T05:03:16;101324.28;;;10.09;100.00
26087;BME280;13851;43.434;28.338;2023-01-01T05:05:47;101286.63;;;9.72;100.00
26087;BME280;13851;43.434;28.338;2023-01-01T05:08:14;101065.06;;;8.54;100.00
26087;BME280;13851;43.434;28.338;2023-01-01T05:10:39;101185.72;;;9.00;100.00
26087;BME280;13851;43.434;28.338;2023-01-01T05:13:06;101294.19;;;9.40;100.00
26087;BME280;13851;43.434;28.338;2023-01-01T05:15:35;101309.38;;;9.63;100.00
26087;BME280;13851;43.434;28.338;2023-01-01T05:18:00;101335.44;;;9.67;100.00
26087;BME280;13851;43.434;28.338;2023-01-01T05:20:28;101283.53;;;9.46;100.00
26087;BME280;13851;43.434;28.338;2023-01-01T05:22:54;101334.00;;;9.63;100.00
26087;BME280;13851;43.434;28.338;2023-01-01T05:25:19;101302.13;;;9.43;100.00
26087;BME280;13851;43.434;28.338;2023-01-01T05:27:44;101307.31;;;9.46;100.00
26087;BME280;13851;43.434;28.338;2023-01-01T05:30:10;101308.97;;;9.68;100.00
26087;BME280;13851;43.434;28.338;2023-01-01T05:32:36;101332.31;;;9.81;100.00
26087;BME280;13851;43.434;28.338;2023-01-01T05:35:02;101327.41;;;9.75;100.00
26087;BME280;13851;43.434;28.338;2023-01-01T05:37:28;101286.38;;;9.25;100.00
26087;BME280;13851;43.434;28.338;2023-01-01T05:39:58;101323.38;;;9.79;100.00
26087;BME280;13851;43.434;28.338;2023-01-01T05:42:26;101267.72;;;9.50;100.00
26087;BME280;13851;43.434;28.338;2023-01-01T05:44:51;101300.19;;;9.74;100.00
26087;BME280;13851;43.434;28.338;2023-01-01T05:47:17;101259.69;;;9.58;100.00
26087;BME280;13851;43.434;28.338;2023-01-01T05:49:43;101311.28;;;9.92;100.00
26087;BME280;13851;43.434;28.338;2023-01-01T05:52:11;101276.28;;;9.85;100.00
26087;BME280;13851;43.434;28.338;2023-01-01T05:54:36;101337.00;;;10.29;100.00
26087;BME280;13851;43.434;28.338;2023-01-01T05:57:02;101354.75;;;10.25;100.00
26087;BME280;13851;43.434;28.338;2023-01-01T05:59:27;101089.41;;;8.67;100.00
26087;BME280;13851;43.434;28.338;2023-01-01T06:01:53;101345.66;;;10.25;100.00
26087;BME280;13851;43.434;28.338;2023-01-01T06:04:18;101313.63;;;10.06;100.00
26087;BME280;13851;43.434;28.338;2023-01-01T06:06:47;101359.75;;;10.20;100.00
26087;BME280;13851;43.434;28.338;2023-01-01T06:09:12;101348.19;;;10.75;100.00
26087;BME280;13851;43.434;28.338;2023-01-01T06:11:38;101103.59;;;9.40;100.00
26087;BME280;13851;43.434;28.338;2023-01-01T06:14:04;101355.06;;;11.08;100.00
26087;BME280;13851;43.434;28.338;2023-01-01T06:16:30;101309.88;;;10.55;100.00
26087;BME280;13851;43.434;28.338;2023-01-01T06:18:55;101346.22;;;10.67;100.00
26087;BME280;13851;43.434;28.338;2023-01-01T06:21:22;101381.41;;;10.43;100.00
26087;BME280;13851;43.434;28.338;2023-01-01T06:23:49;101108.22;;;9.40;100.00
26087;BME280;13851;43.434;28.338;2023-01-01T06:26:17;101347.28;;;11.03;100.00
26087;BME280;13851;43.434;28.338;2023-01-01T06:28:44;101189.09;;;10.20;100.00
26087;BME280;13851;43.434;28.338;2023-01-01T06:31:13;101362.44;;;11.07;100.00
26087;BME280;13851;43.434;28.338;2023-01-01T06:33:39;101348.66;;;11.27;100.00
26087;BME280;13851;43.434;28.338;2023-01-01T06:36:09;101364.06;;;11.37;100.00
26087;BME280;13851;43.434;28.338;2023-01-01T06:38:37;101153.16;;;10.42;100.00
26087;BME280;13851;43.434;28.338;2023-01-01T06:41:07;101356.81;;;11.74;100.00
26087;BME280;13851;43.434;28.338;2023-01-01T06:43:35;101334.09;;;11.54;100.00
26087;BME280;13851;43.434;28.338;2023-01-01T06:46:28;101178.00;;;10.68;100.00
26087;BME280;13851;43.434;28.338;2023-01-01T06:48:56;101114.84;;;10.32;100.00
26087;BME280;13851;43.434;28.338;2023-01-01T06:51:24;101281.22;;;11.24;100.00
26087;BME280;13851;43.434;28.338;2023-01-01T06:53:51;101362.34;;;11.91;100.00
26087;BME280;13851;43.434;28.338;2023-01-01T06:56:17;101327.28;;;11.85;100.00
26087;BME280;13851;43.434;28.338;2023-01-01T06:58:43;101315.59;;;11.83;100.00
26087;BME280;13851;43.434;28.338;2023-01-01T07:01:12;101368.63;;;12.29;100.00
26087;BME280;13851;43.434;28.338;2023-01-01T07:03:38;101365.78;;;12.21;100.00
26087;BME280;13851;43.434;28.338;2023-01-01T07:06:05;101368.75;;;12.28;100.00
26087;BME280;13851;43.434;28.338;2023-01-01T07:08:31;101358.78;;;12.27;100.00
26087;BME280;13851;43.434;28.338;2023-01-01T07:10:56;101342.31;;;12.27;100.00
26087;BME280;13851;43.434;28.338;2023-01-01T07:13:26;101349.22;;;12.31;100.00
26087;BME280;13851;43.434;28.338;2023-01-01T07:15:52;101422.75;;;12.64;100.00
26087;BME280;13851;43.434;28.338;2023-01-01T07:18:19;101399.03;;;12.89;100.00
26087;BME280;13851;43.434;28.338;2023-01-01T07:20:52;101364.97;;;13.08;100.00
26087;BME280;13851;43.434;28.338;2023-01-01T07:23:22;101346.91;;;13.06;100.00
26087;BME280;13851;43.434;28.338;2023-01-01T07:25:49;101354.81;;;13.09;100.00
26087;BME280;13851;43.434;28.338;2023-01-01T07:28:15;101377.59;;;13.19;100.00
26087;BME280;13851;43.434;28.338;2023-01-01T07:30:40;101336.44;;;13.09;100.00
26087;BME280;13851;43.434;28.338;2023-01-01T07:33:13;101385.38;;;13.49;100.00
26087;BME280;13851;43.434;28.338;2023-01-01T07:35:39;101382.09;;;13.80;100.00
26087;BME280;13851;43.434;28.338;2023-01-01T07:38:05;101372.50;;;13.92;100.00
26087;BME280;13851;43.434;28.338;2023-01-01T07:40:31;101374.44;;;14.08;100.00
26087;BME280;13851;43.434;28.338;2023-01-01T07:43:03;101343.69;;;13.87;100.00
26087;BME280;13851;43.434;28.338;2023-01-01T07:45:29;101386.34;;;14.17;100.00
26087;BME280;13851;43.434;28.338;2023-01-01T07:47:56;101330.16;;;14.01;100.00
26087;BME280;13851;43.434;28.338;2023-01-01T07:50:27;101386.75;;;14.46;100.00
26087;BME280;13851;43.434;28.338;2023-01-01T07:52:56;101334.66;;;14.27;100.00
26087;BME280;13851;43.434;28.338;2023-01-01T07:55:22;101362.31;;;14.60;100.00
26087;BME280;13851;43.434;28.338;2023-01-01T07:57:48;101387.47;;;14.97;100.00
26087;BME280;13851;43.434;28.338;2023-01-01T08:00:16;101387.97;;;15.17;100.00
26087;BME280;13851;43.434;28.338;2023-01-01T08:02:43;101147.63;;;14.08;100.00
26087;BME280;13851;43.434;28.338;2023-01-01T08:05:09;101343.22;;;15.46;100.00
26087;BME280;13851;43.434;28.338;2023-01-01T08:07:34;101354.94;;;15.56;100.00
26087;BME280;13851;43.434;28.338;2023-01-01T08:10:00;101352.84;;;15.67;100.00
26087;BME280;13851;43.434;28.338;2023-01-01T08:12:26;101361.72;;;15.85;100.00
26087;BME280;13851;43.434;28.338;2023-01-01T08:14:51;101393.47;;;16.28;100.00
26087;BME280;13851;43.434;28.338;2023-01-01T08:17:17;101366.28;;;16.09;100.00
26087;BME280;13851;43.434;28.338;2023-01-01T08:19:42;101407.22;;;16.14;100.00
26087;BME280;13851;43.434;28.338;2023-01-01T08:22:09;101348.34;;;15.57;100.00
26087;BME280;13851;43.434;28.338;2023-01-01T08:24:35;101382.66;;;16.19;100.00
26087;BME280;13851;43.434;28.338;2023-01-01T08:27:01;101360.91;;;16.38;100.00
26087;BME280;13851;43.434;28.338;2023-01-01T08:29:26;101406.59;;;16.57;100.00
26087;BME280;13851;43.434;28.338;2023-01-01T08:31:55;101390.28;;;16.62;100.00
26087;BME280;13851;43.434;28.338;2023-01-01T08:34:20;101385.25;;;16.66;100.00
26087;BME280;13851;43.434;28.338;2023-01-01T08:36:46;101148.34;;;15.13;100.00
26087;BME280;13851;43.434;28.338;2023-01-01T08:39:11;101376.28;;;16.10;100.00
26087;BME280;13851;43.434;28.338;2023-01-01T08:41:37;101295.94;;;15.41;100.00
26087;BME280;13851;43.434;28.338;2023-01-01T08:44:02;101425.00;;;16.11;100.00
26087;BME280;13851;43.434;28.338;2023-01-01T08:46:28;101430.31;;;15.81;100.00
26087;BME280;13851;43.434;28.338;2023-01-01T08:48:53;101364.28;;;15.47;100.00
26087;BME280;13851;43.434;28.338;2023-01-01T08:51:19;101360.84;;;15.37;100.00
26087;BME280;13851;43.434;28.338;2023-01-01T08:53:45;101403.94;;;15.63;100.00
26087;BME280;13851;43.434;28.338;2023-01-01T08:56:12;101187.75;;;14.18;100.00
26087;BME280;13851;43.434;28.338;2023-01-01T08:58:40;101395.03;;;15.28;100.00
26087;BME280;13851;43.434;28.338;2023-01-01T09:01:07;101335.06;;;14.97;100.00
26087;BME280;13851;43.434;28.338;2023-01-01T09:03:33;101397.34;;;15.00;100.00
26087;BME280;13851;43.434;28.338;2023-01-01T09:05:59;101364.72;;;14.79;100.00
26087;BME280;13851;43.434;28.338;2023-01-01T09:08:26;101200.63;;;13.69;100.00
26087;BME280;13851;43.434;28.338;2023-01-01T09:10:55;101395.41;;;14.92;100.00
26087;BME280;13851;43.434;28.338;2023-01-01T09:13:24;101392.50;;;14.86;100.00
26087;BME280;13851;43.434;28.338;2023-01-01T09:15:50;101385.94;;;14.87;100.00
26087;BME280;13851;43.434;28.338;2023-01-01T09:18:15;101330.59;;;14.47;100.00
26087;BME280;13851;43.434;28.338;2023-01-01T09:20:41;101389.38;;;14.72;100.00
26087;BME280;13851;43.434;28.338;2023-01-01T09:23:07;101376.81;;;14.70;100.00
26087;BME280;13851;43.434;28.338;2023-01-01T09:25:34;101383.00;;;14.88;100.00
26087;BME280;13851;43.434;28.338;2023-01-01T09:28:01;101223.38;;;14.20;100.00
26087;BME280;13851;43.434;28.338;2023-01-01T09:30:27;101358.00;;;15.06;100.00
26087;BME280;13851;43.434;28.338;2023-01-01T09:32:52;101399.13;;;15.65;100.00
26087;BME280;13851;43.434;28.338;2023-01-01T09:35:18;101288.09;;;15.14;100.00
26087;BME280;13851;43.434;28.338;2023-01-01T09:37:44;101353.19;;;15.64;100.00
26087;BME280;13851;43.434;28.338;2023-01-01T09:43:26;101376.00;;;15.49;100.00
26087;BME280;13851;43.434;28.338;2023-01-01T09:46:05;101370.19;;;15.36;100.00
26087;BME280;13851;43.434;28.338;2023-01-01T09:48:31;101355.66;;;15.34;100.00
26087;BME280;13851;43.434;28.338;2023-01-01T09:50:59;101371.38;;;15.33;100.00
26087;BME280;13851;43.434;28.338;2023-01-01T09:53:34;101333.28;;;15.21;100.00
26087;BME280;13851;43.434;28.338;2023-01-01T09:56:08;101361.19;;;15.42;100.00
26087;BME280;13851;43.434;28.338;2023-01-01T09:58:39;101331.53;;;15.20;100.00
26087;BME280;13851;43.434;28.338;2023-01-01T10:01:41;101116.78;;;13.96;100.00
26087;BME280;13851;43.434;28.338;2023-01-01T10:04:40;101335.28;;;15.35;100.00
26087;BME280;13851;43.434;28.338;2023-01-01T10:07:22;101351.06;;;15.26;100.00
26087;BME280;13851;43.434;28.338;2023-01-01T10:12:52;101355.00;;;15.24;100.00
26087;BME280;13851;43.434;28.338;2023-01-01T10:15:22;101333.47;;;15.03;100.00
26087;BME280;13851;43.434;28.338;2023-01-01T10:17:59;101334.38;;;14.95;100.00
26087;BME280;13851;43.434;28.338;2023-01-01T10:20:33;101333.34;;;14.88;100.00
26087;BME280;13851;43.434;28.338;2023-01-01T10:23:07;101307.59;;;15.04;100.00
26087;BME280;13851;43.434;28.338;2023-01-01T10:25:41;101312.84;;;15.46;100.00
26087;BME280;13851;43.434;28.338;2023-01-01T10:28:19;101270.72;;;15.44;100.00
26087;BME280;13851;43.434;28.338;2023-01-01T10:30:47;101317.56;;;16.08;100.00
26087;BME280;13851;43.434;28.338;2023-01-01T10:33:14;101065.63;;;14.18;100.00
26087;BME280;13851;43.434;28.338;2023-01-01T10:35:51;101302.84;;;15.84;100.00
26087;BME280;13851;43.434;28.338;2023-01-01T10:38:23;101334.84;;;16.33;100.00
26087;BME280;13851;43.434;28.338;2023-01-01T10:40:59;101326.59;;;16.71;100.00
26087;BME280;13851;43.434;28.338;2023-01-01T10:43:27;101310.50;;;16.51;100.00
26087;BME280;13851;43.434;28.338;2023-01-01T10:45:54;101318.00;;;17.03;100.00
26087;BME280;13851;43.434;28.338;2023-01-01T10:48:25;101365.47;;;17.30;100.00
26087;BME280;13851;43.434;28.338;2023-01-01T10:53:50;101316.41;;;16.25;100.00
26087;BME280;13851;43.434;28.338;2023-01-01T10:56:18;101089.41;;;15.05;100.00
26087;BME280;13851;43.434;28.338;2023-01-01T10:58:46;101083.69;;;14.76;100.00
26087;BME280;13851;43.434;28.338;2023-01-01T11:06:41;101317.72;;;16.06;100.00
26087;BME280;13851;43.434;28.338;2023-01-01T11:09:27;101315.28;;;16.11;100.00
26087;BME280;13851;43.434;28.338;2023-01-01T11:11:58;101307.84;;;16.12;100.00
26087;BME280;13851;43.434;28.338;2023-01-01T11:14:27;101099.72;;;15.12;100.00
26087;BME280;13851;43.434;28.338;2023-01-01T11:16:54;101301.88;;;16.46;100.00
26087;BME280;13851;43.434;28.338;2023-01-01T11:19:31;101301.16;;;16.75;100.00
26087;BME280;13851;43.434;28.338;2023-01-01T11:21:58;101327.28;;;17.40;100.00
26087;BME280;13851;43.434;28.338;2023-01-01T11:24:26;101304.66;;;17.36;100.00
26087;BME280;13851;43.434;28.338;2023-01-01T11:26:53;101310.84;;;17.24;100.00
26087;BME280;13851;43.434;28.338;2023-01-01T11:29:35;101317.44;;;17.23;100.00
26087;BME280;13851;43.434;28.338;2023-01-01T11:32:06;101291.38;;;17.32;100.00
26087;BME280;13851;43.434;28.338;2023-01-01T11:34:41;101305.44;;;17.30;100.00
26087;BME280;13851;43.434;28.338;2023-01-01T11:37:19;101337.13;;;18.02;100.00
26087;BME280;13851;43.434;28.338;2023-01-01T11:39:49;101304.91;;;18.43;100.00
26087;BME280;13851;43.434;28.338;2023-01-01T11:42:22;101303.06;;;18.72;95.79
26087;BME280;13851;43.434;28.338;2023-01-01T11:45:00;101280.66;;;18.31;98.55
26087;BME280;13851;43.434;28.338;2023-01-01T11:47:38;101105.22;;;17.00;99.13
26087;BME280;13851;43.434;28.338;2023-01-01T11:52:51;101251.94;;;17.00;100.00
26087;BME280;13851;43.434;28.338;2023-01-01T11:57:58;101310.84;;;16.94;100.00
26087;BME280;13851;43.434;28.338;2023-01-01T12:00:28;101310.25;;;16.61;100.00
26087;BME280;13851;43.434;28.338;2023-01-01T12:05:59;101307.31;;;17.30;100.00
26087;BME280;13851;43.434;28.338;2023-01-01T12:08:42;101258.78;;;17.34;100.00
26087;BME280;13851;43.434;28.338;2023-01-01T12:11:16;101304.91;;;17.86;100.00
26087;BME280;13851;43.434;28.338;2023-01-01T12:13:59;101305.53;;;18.03;100.00
26087;BME280;13851;43.434;28.338;2023-01-01T12:17:02;101305.09;;;17.70;100.00
26087;BME280;13851;43.434;28.338;2023-01-01T12:22:17;101300.75;;;18.33;98.39
26087;BME280;13851;43.434;28.338;2023-01-01T12:24:45;101274.41;;;17.86;100.00
26087;BME280;13851;43.434;28.338;2023-01-01T12:27:28;101295.66;;;17.79;100.00
26087;BME280;13851;43.434;28.338;2023-01-01T12:30:11;101328.13;;;17.55;100.00
26087;BME280;13851;43.434;28.338;2023-01-01T12:46:58;101288.56;;;18.77;84.00
26087;BME280;13851;43.434;28.338;2023-01-01T12:49:44;101297.38;;;18.80;84.25
26087;BME280;13851;43.434;28.338;2023-01-01T12:55:02;101326.38;;;18.56;81.78
26087;BME280;13851;43.434;28.338;2023-01-01T12:57:43;101301.13;;;18.30;80.52
26087;BME280;13851;43.434;28.338;2023-01-01T13:00:15;101300.31;;;17.93;84.68
26087;BME280;13851;43.434;28.338;2023-01-01T13:02:51;101305.50;;;18.39;81.80
26087;BME280;13851;43.434;28.338;2023-01-01T13:05:30;101301.53;;;18.48;79.08
26087;BME280;13851;43.434;28.338;2023-01-01T13:08:03;101299.22;;;17.73;83.55
26087;BME280;13851;43.434;28.338;2023-01-01T13:10:33;101301.47;;;17.84;82.79
26087;BME280;13851;43.434;28.338;2023-01-01T13:12:59;101299.53;;;17.99;79.94
26087;BME280;13851;43.434;28.338;2023-01-01T13:20:56;101260.81;;;15.66;95.63
26087;BME280;13851;43.434;28.338;2023-01-01T13:42:43;101303.84;;;15.52;100.00
26087;BME280;13851;43.434;28.338;2023-01-01T13:51:28;101288.59;;;15.17;100.00
26087;BME280;13851;43.434;28.338;2023-01-01T13:54:24;100883.53;;;12.75;100.00
26087;BME280;13851;43.434;28.338;2023-01-01T13:56:57;101299.88;;;14.91;100.00
26087;BME280;13851;43.434;28.338;2023-01-01T13:59:50;101301.81;;;14.50;100.00
26087;BME280;13851;43.434;28.338;2023-01-01T14:05:02;101291.53;;;13.77;100.00
26087;BME280;13851;43.434;28.338;2023-01-01T14:10:19;101295.16;;;13.86;100.00
26087;BME280;13851;43.434;28.338;2023-01-01T14:12:45;101267.72;;;13.51;100.00
26087;BME280;13851;43.434;28.338;2023-01-01T14:15:35;101290.22;;;13.47;100.00
26087;BME280;13851;43.434;28.338;2023-01-01T14:18:04;101303.16;;;13.55;100.00
26087;BME280;13851;43.434;28.338;2023-01-01T14:20:50;101287.88;;;13.68;100.00
26087;BME280;13851;43.434;28.338;2023-01-01T14:23:32;101233.63;;;13.61;100.00
26087;BME280;13851;43.434;28.338;2023-01-01T14:26:08;101279.66;;;13.85;100.00
26087;BME280;13851;43.434;28.338;2023-01-01T14:28:35;101276.72;;;13.78;100.00
26087;BME280;13851;43.434;28.338;2023-01-01T14:31:12;101307.88;;;13.87;100.00
26087;BME280;13851;43.434;28.338;2023-01-01T14:33:39;101247.00;;;13.39;100.00
26087;BME280;13851;43.434;28.338;2023-01-01T14:36:19;101303.13;;;13.46;100.00